Time,TemperatureC,DewpointC,PressurehPa,WindDirection,WindDirectionDegrees,WindSpeedKMH,WindSpeedGustKMH,Humidity,HourlyPrecipMM,Conditions,Clouds,dailyrainMM,SolarRadiationWatts/m^2,UVIndex,SoftwareType,DateUTC
2026-09-06 00:03:07,9.2,10.6,1012.7,South,180,0,0,73.6,0.0,,,0.0,0,0,n/a,2026-09-05T22:03:07Z
2026-09-06 00:09:08,9.3,10.9,1012.9,South,180,0,0,75.9,0.0,,,0.0,2,0,n/a,2026-09-05T22:09:08Z
2026-09-06 00:12:07,9.2,10.6,1012.9,South,180,0.6,0.7,75.6,0.0,,,0.0,0,0,n/a,2026-09-05T22:12:07Z
2026-09-06 00:18:07,9.3,10.8,1013.2,South,180,0,0,76.3,0.0,,,0.0,2,0,n/a,2026-09-05T22:18:07Z
2026-09-06 00:24:06,9,10.6,1013.2,South,180,0,0,75.5,0.0,,,0.0,2,0,n/a,2026-09-05T22:24:06Z
2026-09-06 00:33:03,8.9,10.5,1013.2,South,180,0,0,75.5,0.0,,,0.0,0,0,n/a,2026-09-05T22:33:03Z
2026-09-06 00:39:03,8.7,10.2,1013.2,South,180,0,0,74.7,0.0,,,0.0,2,0,n/a,2026-09-05T22:39:03Z
2026-09-06 00:42:03,8.6,10.2,1013.2,South,180,0,0,74.9,0.0,,,0.0,0,0,n/a,2026-09-05T22:42:03Z
2026-09-06 00:48:07,8.6,10.3,1013.2,South,180,0.9,1.7,75.5,0.0,,,0.0,2,0,n/a,2026-09-05T22:48:07Z
2026-09-06 00:54:07,8.6,10.2,1013.2,South,180,0,0,75.4,0.0,,,0.0,0,0,n/a,2026-09-05T22:54:07Z
2026-09-06 00:57:06,8.5,10.1,1013.2,South,180,0,0,75.1,0.0,,,0.0,2,0,n/a,2026-09-05T22:57:06Z
2026-09-06 01:03:07,8.5,10,1013.2,North,0,2.9,4.4,75.4,0.0,,,0.0,2,0,n/a,2026-09-05T23:03:07Z
2026-09-06 01:09:07,8.4,10,1013.2,North,0,0.1,0.5,75.5,0.0,,,0.0,2,0,n/a,2026-09-05T23:09:07Z
2026-09-06 01:12:07,8.3,10,1013.2,North,0,0,0,75.7,0.0,,,0.0,2,0,n/a,2026-09-05T23:12:07Z
2026-09-06 01:18:06,8.4,10,1013.2,East,100,0.8,1.3,76.1,0.0,,,0.0,2,0,n/a,2026-09-05T23:18:06Z
2026-09-06 01:24:06,8.2,10,1013.4,South,180,0,0,76.8,0.0,,,0.0,2,0,n/a,2026-09-05T23:24:06Z
2026-09-06 01:27:07,8.2,9.8,1013.4,East,90,0.6,0.7,76.1,0.0,,,0.0,0,0,n/a,2026-09-05T23:27:07Z
2026-09-06 01:33:03,8,9.6,1013.4,North,0,0.2,0.7,76.2,0.0,,,0.0,2,0,n/a,2026-09-05T23:33:03Z
2026-09-06 01:39:07,7.8,9.6,1013.4,East,90,0,0,76.3,0.0,,,0.0,0,0,n/a,2026-09-05T23:39:07Z
2026-09-06 01:42:07,7.6,9.4,1013.2,East,90,0,0,75.8,0.0,,,0.0,2,0,n/a,2026-09-05T23:42:07Z
2026-09-06 01:48:07,7.6,9.3,1013.7,East,90,0,0,75.7,0.0,,,0.0,2,0,n/a,2026-09-05T23:48:07Z
2026-09-06 01:54:07,7.8,9.3,1013.7,SSE,157,0.6,1.1,76.4,0.0,,,0.0,0,0,n/a,2026-09-05T23:54:07Z
2026-09-06 01:57:07,8,9.6,1013.7,South,180,0.9,1.1,77.5,0.0,,,0.0,2,0,n/a,2026-09-05T23:57:07Z
2026-09-06 02:03:08,7.8,9.6,1013.7,South,180,0.2,0.7,77.7,0.0,,,0.0,2,0,n/a,2026-09-06T00:03:08Z
2026-09-06 02:09:07,7.4,9.3,1013.7,East,90,0,0,76.7,0.0,,,0.0,0,0,n/a,2026-09-06T00:09:07Z
2026-09-06 02:12:03,7.2,9.2,1013.7,North,0,0,0,76.8,0.0,,,0.0,0,0,n/a,2026-09-06T00:12:03Z
2026-09-06 02:18:07,7.2,9,1013.7,East,90,0,0,76.4,0.0,,,0.0,2,0,n/a,2026-09-06T00:18:07Z
2026-09-06 02:24:07,7.1,8.8,1013.7,East,90,0,0,76.1,0.0,,,0.0,2,0,n/a,2026-09-06T00:24:07Z
2026-09-06 02:27:07,7.3,8.9,1013.7,SSE,157,1.2,1.3,76.8,0.0,,,0.0,0,0,n/a,2026-09-06T00:27:07Z
2026-09-06 02:33:03,7.4,9,1013.7,South,180,0,0,77.6,0.0,,,0.0,2,0,n/a,2026-09-06T00:33:03Z
2026-09-06 02:39:07,7.1,9,1013.9,South,180,0,0,77.3,0.0,,,0.0,2,0,n/a,2026-09-06T00:39:07Z
2026-09-06 02:42:07,7,8.8,1013.7,South,180,0,0,76.9,0.0,,,0.0,2,0,n/a,2026-09-06T00:42:07Z
2026-09-06 02:48:07,6.9,8.7,1013.7,South,180,0,0,77.1,0.0,,,0.0,2,0,n/a,2026-09-06T00:48:07Z
2026-09-06 02:54:03,6.7,8.6,1013.9,South,180,0,0,76.7,0.0,,,0.0,0,0,n/a,2026-09-06T00:54:03Z
2026-09-06 02:57:07,6.6,8.3,1013.7,South,180,0,0,76.4,0.0,,,0.0,2,0,n/a,2026-09-06T00:57:07Z
2026-09-06 03:03:07,6.5,8.4,1013.7,South,180,0,0,76.7,0.0,,,0.0,0,0,n/a,2026-09-06T01:03:07Z
2026-09-06 03:09:03,6.7,8.3,1013.7,South,180,0,0,76.9,0.0,,,0.0,0,0,n/a,2026-09-06T01:09:03Z
2026-09-06 03:12:07,6.5,8.3,1013.7,South,180,0,0,76.5,0.0,,,0.0,2,0,n/a,2026-09-06T01:12:07Z
2026-09-06 03:18:07,6.5,8.3,1013.7,South,180,0,0,76.7,0.0,,,0.0,0,0,n/a,2026-09-06T01:18:07Z
2026-09-06 03:24:07,6.5,8.2,1013.9,South,180,0,0,77.2,0.0,,,0.0,2,0,n/a,2026-09-06T01:24:07Z
2026-09-06 03:27:06,6.5,8.3,1013.9,South,180,0,0,77.7,0.0,,,0.0,0,0,n/a,2026-09-06T01:27:06Z
2026-09-06 03:33:07,6.1,8,1013.9,South,180,0,0,76.8,0.0,,,0.0,2,0,n/a,2026-09-06T01:33:07Z
2026-09-06 03:39:06,6.1,7.9,1013.9,South,180,0,0,76.7,0.0,,,0.0,2,0,n/a,2026-09-06T01:39:06Z
2026-09-06 03:42:07,6.2,7.9,1013.9,South,180,0,0,77.2,0.0,,,0.0,0,0,n/a,2026-09-06T01:42:07Z
2026-09-06 03:48:07,6.4,8.1,1014.2,South,180,0,0,78.3,0.0,,,0.0,0,0,n/a,2026-09-06T01:48:07Z
2026-09-06 03:54:07,6.2,8,1014.2,South,180,0,0,78.1,0.0,,,0.0,2,0,n/a,2026-09-06T01:54:07Z
2026-09-06 03:57:07,6.3,8.1,1014.2,South,180,2.6,2.7,79,0.0,,,0.0,0,0,n/a,2026-09-06T01:57:07Z
2026-09-06 04:03:03,6.4,8,1013.9,South,180,0.6,0.7,78.8,0.0,,,0.0,2,0,n/a,2026-09-06T02:03:03Z
2026-09-06 04:09:06,6.4,8.1,1014.2,South,180,0,0,79.6,0.0,,,0.0,2,0,n/a,2026-09-06T02:09:06Z
2026-09-06 04:12:07,6.3,8,1014.2,South,180,0,0,79.4,0.0,,,0.0,0,0,n/a,2026-09-06T02:12:07Z
2026-09-06 04:18:07,6.1,8,1014.2,South,180,0,0,79,0.0,,,0.0,2,0,n/a,2026-09-06T02:18:07Z
2026-09-06 04:24:07,6.2,7.8,1014.2,South,180,0,0,78.6,0.0,,,0.0,0,0,n/a,2026-09-06T02:24:07Z
2026-09-06 04:27:03,5.9,7.8,1014.2,South,180,0,0,78.9,0.0,,,0.0,2,0,n/a,2026-09-06T02:27:03Z
2026-09-06 04:33:06,5.8,7.8,1014.2,South,180,0,0,79,0.0,,,0.0,2,0,n/a,2026-09-06T02:33:06Z
2026-09-06 04:39:07,5.8,7.7,1014.4,South,180,0,0,79.3,0.0,,,0.0,0,0,n/a,2026-09-06T02:39:07Z
2026-09-06 04:42:07,5.7,7.6,1014.4,South,180,0,0,79.4,0.0,,,0.0,2,0,n/a,2026-09-06T02:42:07Z
2026-09-06 04:48:03,5.7,7.5,1014.2,South,180,0,0,79.2,0.0,,,0.0,2,0,n/a,2026-09-06T02:48:03Z
2026-09-06 04:54:07,5.7,7.5,1014.2,South,180,0,0,79.2,0.0,,,0.0,2,0,n/a,2026-09-06T02:54:07Z
2026-09-06 04:57:06,5.4,7.5,1014.4,South,180,1.2,1.3,78.9,0.0,,,0.0,0,0,n/a,2026-09-06T02:57:06Z
2026-09-06 05:03:07,5.4,7.3,1014.4,South,180,0,0,78.8,0.0,,,0.0,0,0,n/a,2026-09-06T03:03:07Z
2026-09-06 05:09:04,5.5,7.4,1014.6,NNW,337,0,0,79.3,0.0,,,0.0,2,0,n/a,2026-09-06T03:09:04Z
2026-09-06 05:12:06,5.4,7.3,1014.6,ENE,67,2.4,2.8,79.7,0.0,,,0.0,0,0,n/a,2026-09-06T03:12:06Z
2026-09-06 05:18:06,5.4,7.3,1014.6,ENE,67,0.7,1.1,79.5,0.0,,,0.0,2,0,n/a,2026-09-06T03:18:06Z
2026-09-06 05:24:07,5.5,7.2,1014.6,NNE,22,0.1,0.6,79.6,0.0,,,0.0,2,0,n/a,2026-09-06T03:24:07Z
2026-09-06 05:27:06,5.4,7.3,1014.6,NNE,22,0,0,79.9,0.0,,,0.0,0,0,n/a,2026-09-06T03:27:06Z
2026-09-06 05:33:07,5.3,7.3,1014.6,NNE,22,0,0,80.3,0.0,,,0.0,2,0,n/a,2026-09-06T03:33:07Z
2026-09-06 05:39:07,5.3,7.3,1014.6,NNE,22,0,0,80.6,0.0,,,0.0,2,0,n/a,2026-09-06T03:39:07Z
2026-09-06 05:42:07,5.3,7.3,1014.6,NNE,22,0,0,81.1,0.0,,,0.0,2,0,n/a,2026-09-06T03:42:07Z
2026-09-06 05:48:08,5.3,7.3,1014.6,NNE,22,0,0,81.3,0.0,,,0.0,0,0,n/a,2026-09-06T03:48:08Z
2026-09-06 05:54:07,4.9,7,1014.6,NE,45,0,0,80.6,0.0,,,0.0,2,0,n/a,2026-09-06T03:54:07Z
2026-09-06 05:57:07,4.9,7,1014.6,ENE,67,0,0,80.3,0.0,,,0.0,2,0,n/a,2026-09-06T03:57:07Z
2026-09-06 06:03:07,4.7,6.9,1014.6,NW,315,0.2,0.7,80.4,0.0,,,0.0,2,0,n/a,2026-09-06T04:03:07Z
2026-09-06 06:09:07,4.6,6.8,1014.6,NNW,337,1.1,1.3,80.3,0.0,,,0.0,2,0,n/a,2026-09-06T04:09:07Z
2026-09-06 06:12:03,4.7,6.8,1014.6,North,0,0,0,80.3,0.0,,,0.0,2,0,n/a,2026-09-06T04:12:03Z
2026-09-06 06:18:07,4.9,6.8,1014.6,North,0,0,0,80.6,0.0,,,0.0,2,0,n/a,2026-09-06T04:18:07Z
2026-09-06 06:24:07,5,6.9,1014.9,WNW,292,0.6,0.7,80.9,0.0,,,0.0,2,0,n/a,2026-09-06T04:24:07Z
2026-09-06 06:27:06,4.7,6.7,1014.9,West,270,0,0,80.5,0.0,,,0.0,2,0,n/a,2026-09-06T04:27:06Z
2026-09-06 06:33:03,4.7,6.7,1014.9,West,270,0.6,1.1,80.7,0.0,,,0.0,4,0,n/a,2026-09-06T04:33:03Z
2026-09-06 06:39:07,4.8,6.7,1015.1,West,270,0.7,1.6,81.4,0.0,,,0.0,6,0,n/a,2026-09-06T04:39:07Z
2026-09-06 06:42:07,4.8,6.8,1015.1,West,270,0,0,81.9,0.0,,,0.0,6,0,n/a,2026-09-06T04:42:07Z
2026-09-06 06:48:07,4.9,6.8,1015.1,West,270,0,0,81.9,0.0,,,0.0,8,0,n/a,2026-09-06T04:48:07Z
2026-09-06 06:54:03,4.9,6.9,1015.1,West,270,0,0,82.2,0.0,,,0.0,10,0,n/a,2026-09-06T04:54:03Z
2026-09-06 06:57:06,4.8,6.9,1015.1,SW,225,1.8,2,82.3,0.0,,,0.0,14,0,n/a,2026-09-06T04:57:06Z
2026-09-06 07:03:07,4.9,7,1015.1,West,270,0,0,82.5,0.0,,,0.0,62,0,n/a,2026-09-06T05:03:07Z
2026-09-06 07:09:07,5.5,7.7,1015.1,West,270,0,0,84.5,0.0,,,0.0,48,0,n/a,2026-09-06T05:09:07Z